sensor_id;sensor_type;location;lat;lon;timestamp;pressure;altitude;pressure_sealevel;temperature
78225;BMP280;67498;53.650;10.090;2023-09-07T00:01:40;102273.25;;;18.84
78225;BMP280;67498;53.650;10.090;2023-09-07T00:04:05;102270.53;;;18.88
78225;BMP280;67498;53.650;10.090;2023-09-07T00:06:31;102271.03;;;18.83
78225;BMP280;67498;53.650;10.090;2023-09-07T00:08:57;102273.56;;;18.86
78225;BMP280;67498;53.650;10.090;2023-09-07T00:11:22;102272.13;;;18.85
78225;BMP280;67498;53.650;10.090;2023-09-07T00:13:47;102272.91;;;18.82
78225;BMP280;67498;53.650;10.090;2023-09-07T00:16:13;102273.25;;;18.84
78225;BMP280;67498;53.650;10.090;2023-09-07T00:18:38;102276.00;;;18.81
78225;BMP280;67498;53.650;10.090;2023-09-07T00:21:03;102276.75;;;18.81
78225;BMP280;67498;53.650;10.090;2023-09-07T00:23:29;102274.50;;;18.80
78225;BMP280;67498;53.650;10.090;2023-09-07T00:25:55;102272.28;;;18.78
78225;BMP280;67498;53.650;10.090;2023-09-07T00:28:20;102268.63;;;18.72
78225;BMP280;67498;53.650;10.090;2023-09-07T00:30:46;102275.75;;;18.75
78225;BMP280;67498;53.650;10.090;2023-09-07T00:33:11;102270.88;;;18.74
78225;BMP280;67498;53.650;10.090;2023-09-07T00:35:36;102267.22;;;18.67
78225;BMP280;67498;53.650;10.090;2023-09-07T00:38:02;102267.22;;;18.67
78225;BMP280;67498;53.650;10.090;2023-09-07T00:40:27;102274.44;;;18.67
78225;BMP280;67498;53.650;10.090;2023-09-07T00:42:53;102273.72;;;18.66
78225;BMP280;67498;53.650;10.090;2023-09-07T00:45:19;102271.44;;;18.65
78225;BMP280;67498;53.650;10.090;2023-09-07T00:47:44;102269.31;;;18.60
78225;BMP280;67498;53.650;10.090;2023-09-07T00:50:10;102272.69;;;18.60
78225;BMP280;67498;53.650;10.090;2023-09-07T00:52:39;102268.00;;;18.52
78225;BMP280;67498;53.650;10.090;2023-09-07T00:55:07;102269.06;;;18.54
78225;BMP280;67498;53.650;10.090;2023-09-07T00:57:33;102257.16;;;18.46
78225;BMP280;67498;53.650;10.090;2023-09-07T00:59:58;102256.09;;;18.43
78225;BMP280;67498;53.650;10.090;2023-09-07T01:02:24;102268.47;;;18.47
78225;BMP280;67498;53.650;10.090;2023-09-07T01:04:51;102258.72;;;18.43
78225;BMP280;67498;53.650;10.090;2023-09-07T01:07:32;102256.91;;;18.40
78225;BMP280;67498;53.650;10.090;2023-09-07T01:10:00;102246.06;;;18.35
78225;BMP280;67498;53.650;10.090;2023-09-07T01:12:26;102259.22;;;18.38
78225;BMP280;67498;53.650;10.090;2023-09-07T01:14:51;102258.88;;;18.36
78225;BMP280;67498;53.650;10.090;2023-09-07T01:17:18;102260.78;;;18.36
78225;BMP280;67498;53.650;10.090;2023-09-07T01:19:43;102257.56;;;18.28
78225;BMP280;67498;53.650;10.090;2023-09-07T01:22:11;102255.56;;;18.32
78225;BMP280;67498;53.650;10.090;2023-09-07T01:24:37;102248.97;;;18.24
78225;BMP280;67498;53.650;10.090;2023-09-07T01:27:04;102259.47;;;18.28
78225;BMP280;67498;53.650;10.090;2023-09-07T01:29:30;102260.63;;;18.27
78225;BMP280;67498;53.650;10.090;2023-09-07T01:31:56;102255.06;;;18.21
78225;BMP280;67498;53.650;10.090;2023-09-07T01:34:22;102263.75;;;18.22
78225;BMP280;67498;53.650;10.090;2023-09-07T01:36:47;102266.06;;;18.19
78225;BMP280;67498;53.650;10.090;2023-09-07T01:39:12;102262.34;;;18.17
78225;BMP280;67498;53.650;10.090;2023-09-07T01:41:37;102259.44;;;18.11
78225;BMP280;67498;53.650;10.090;2023-09-07T01:44:03;102260.19;;;18.12
78225;BMP280;67498;53.650;10.090;2023-09-07T01:46:28;102261.03;;;18.09
78225;BMP280;67498;53.650;10.090;2023-09-07T01:48:53;102258.38;;;18.09
78225;BMP280;67498;53.650;10.090;2023-09-07T01:51:19;102258.78;;;18.07
78225;BMP280;67498;53.650;10.090;2023-09-07T01:53:47;102258.44;;;18.05
78225;BMP280;67498;53.650;10.090;2023-09-07T01:56:12;102261.97;;;17.99
78225;BMP280;67498;53.650;10.090;2023-09-07T01:58:38;102256.34;;;17.97
78225;BMP280;67498;53.650;10.090;2023-09-07T02:01:03;102264.63;;;17.99
78225;BMP280;67498;53.650;10.090;2023-09-07T02:03:28;102258.34;;;17.92
78225;BMP280;67498;53.650;10.090;2023-09-07T02:05:54;102260.66;;;17.90
78225;BMP280;67498;53.650;10.090;2023-09-07T02:08:19;102268.50;;;17.94
78225;BMP280;67498;53.650;10.090;2023-09-07T02:10:45;102262.94;;;17.88
78225;BMP280;67498;53.650;10.090;2023-09-07T02:13:10;102256.56;;;17.86
78225;BMP280;67498;53.650;10.090;2023-09-07T02:15:39;102264.09;;;17.87
78225;BMP280;67498;53.650;10.090;2023-09-07T02:18:05;102266.41;;;17.85
78225;BMP280;67498;53.650;10.090;2023-09-07T02:20:34;102257.09;;;17.77
78225;BMP280;67498;53.650;10.090;2023-09-07T02:22:59;102265.38;;;17.79
78225;BMP280;67498;53.650;10.090;2023-09-07T02:25:24;102279.03;;;17.78
78225;BMP280;67498;53.650;10.090;2023-09-07T02:27:50;102274.16;;;17.76
78225;BMP280;67498;53.650;10.090;2023-09-07T02:30:15;102276.84;;;17.73
78225;BMP280;67498;53.650;10.090;2023-09-07T02:32:42;102280.63;;;17.72
78225;BMP280;67498;53.650;10.090;2023-09-07T02:35:07;102279.56;;;17.69
78225;BMP280;67498;53.650;10.090;2023-09-07T02:37:33;102280.69;;;17.68
78225;BMP280;67498;53.650;10.090;2023-09-07T02:39:58;102283.75;;;17.66
78225;BMP280;67498;53.650;10.090;2023-09-07T02:42:23;102281.53;;;17.65
78225;BMP280;67498;53.650;10.090;2023-09-07T02:44:49;102281.13;;;17.66
78225;BMP280;67498;53.650;10.090;2023-09-07T02:47:15;102281.94;;;17.63
78225;BMP280;67498;53.650;10.090;2023-09-07T02:49:40;102289.03;;;17.66
78225;BMP280;67498;53.650;10.090;2023-09-07T02:52:06;102286.81;;;17.65
78225;BMP280;67498;53.650;10.090;2023-09-07T02:54:31;102290.59;;;17.64
78225;BMP280;67498;53.650;10.090;2023-09-07T02:56:57;102288.78;;;17.61
78225;BMP280;67498;53.650;10.090;2023-09-07T02:59:22;102282.53;;;17.51
78225;BMP280;67498;53.650;10.090;2023-09-07T03:01:47;102292.00;;;17.49
78225;BMP280;67498;53.650;10.090;2023-09-07T03:04:13;102296.16;;;17.50
78225;BMP280;67498;53.650;10.090;2023-09-07T03:06:38;102300.03;;;17.45
78225;BMP280;67498;53.650;10.090;2023-09-07T03:09:04;102298.97;;;17.39
78225;BMP280;67498;53.650;10.090;2023-09-07T03:11:33;102297.16;;;17.36
78225;BMP280;67498;53.650;10.090;2023-09-07T03:14:00;102298.63;;;17.37
78225;BMP280;67498;53.650;10.090;2023-09-07T03:16:25;102296.88;;;17.30
78225;BMP280;67498;53.650;10.090;2023-09-07T03:18:50;102297.28;;;17.29
78225;BMP280;67498;53.650;10.090;2023-09-07T03:21:16;102286.50;;;17.20
78225;BMP280;67498;53.650;10.090;2023-09-07T03:23:41;102301.19;;;17.21
78225;BMP280;67498;53.650;10.090;2023-09-07T03:26:09;102274.56;;;17.11
78225;BMP280;67498;53.650;10.090;2023-09-07T03:28:34;102286.97;;;17.14
78225;BMP280;67498;53.650;10.090;2023-09-07T03:30:59;102292.63;;;17.13
78225;BMP280;67498;53.650;10.090;2023-09-07T03:33:25;102295.66;;;17.11
78225;BMP280;67498;53.650;10.090;2023-09-07T03:35:50;102305.16;;;17.09
78225;BMP280;67498;53.650;10.090;2023-09-07T03:38:17;102295.44;;;17.02
78225;BMP280;67498;53.650;10.090;2023-09-07T03:40:42;102299.56;;;17.03
78225;BMP280;67498;53.650;10.090;2023-09-07T03:43:09;102300.44;;;16.97
78225;BMP280;67498;53.650;10.090;2023-09-07T03:45:34;102301.97;;;16.94
78225;BMP280;67498;53.650;10.090;2023-09-07T03:47:59;102315.50;;;16.96
78225;BMP280;67498;53.650;10.090;2023-09-07T03:50:25;102306.97;;;16.88
78225;BMP280;67498;53.650;10.090;2023-09-07T03:52:50;102312.59;;;16.90
78225;BMP280;67498;53.650;10.090;2023-09-07T03:55:15;102307.75;;;16.85
78225;BMP280;67498;53.650;10.090;2023-09-07T03:57:40;102305.53;;;16.84
78225;BMP280;67498;53.650;10.090;2023-09-07T04:00:07;102311.16;;;16.86
78225;BMP280;67498;53.650;10.090;2023-09-07T04:02:33;102317.25;;;16.83
78225;BMP280;67498;53.650;10.090;2023-09-07T04:04:59;102318.38;;;16.82
78225;BMP280;67498;53.650;10.090;2023-09-07T04:07:26;102304.56;;;16.74
78225;BMP280;67498;53.650;10.090;2023-09-07T04:09:52;102310.22;;;16.73
78225;BMP280;67498;53.650;10.090;2023-09-07T04:12:17;102309.09;;;16.74
78225;BMP280;67498;53.650;10.090;2023-09-07T04:14:42;102310.97;;;16.73
78225;BMP280;67498;53.650;10.090;2023-09-07T04:17:09;102315.44;;;16.76
78225;BMP280;67498;53.650;10.090;2023-09-07T04:19:34;102301.19;;;16.70
78225;BMP280;67498;53.650;10.090;2023-09-07T04:22:00;102300.88;;;16.68
78225;BMP280;67498;53.650;10.090;2023-09-07T04:24:25;102306.53;;;16.66
78225;BMP280;67498;53.650;10.090;2023-09-07T04:26:52;102316.31;;;16.70
78225;BMP280;67498;53.650;10.090;2023-09-07T04:29:18;102307.72;;;16.62
78225;BMP280;67498;53.650;10.090;2023-09-07T04:31:43;102308.56;;;16.59
78225;BMP280;67498;53.650;10.090;2023-09-07T04:34:08;102308.56;;;16.59
78225;BMP280;67498;53.650;10.090;2023-09-07T04:36:33;102313.38;;;16.60
78225;BMP280;67498;53.650;10.090;2023-09-07T04:38:59;102311.22;;;16.55
78225;BMP280;67498;53.650;10.090;2023-09-07T04:41:24;102322.84;;;16.58
78225;BMP280;67498;53.650;10.090;2023-09-07T04:43:49;102314.66;;;16.52
78225;BMP280;67498;53.650;10.090;2023-09-07T04:46:15;102320.69;;;16.53
78225;BMP280;67498;53.650;10.090;2023-09-07T04:48:40;102322.50;;;16.56
78225;BMP280;67498;53.650;10.090;2023-09-07T04:51:08;102318.81;;;16.50
78225;BMP280;67498;53.650;10.090;2023-09-07T04:53:38;102320.31;;;16.51
78225;BMP280;67498;53.650;10.090;2023-09-07T04:56:04;102325.53;;;16.54
78225;BMP280;67498;53.650;10.090;2023-09-07T04:58:30;102325.53;;;16.54
78225;BMP280;67498;53.650;10.090;2023-09-07T05:01:06;102331.19;;;16.56
78225;BMP280;67498;53.650;10.090;2023-09-07T05:03:31;102330.41;;;16.56
78225;BMP280;67498;53.650;10.090;2023-09-07T05:05:57;102324.81;;;16.54
78225;BMP280;67498;53.650;10.090;2023-09-07T05:08:23;102327.44;;;16.54
78225;BMP280;67498;53.650;10.090;2023-09-07T05:10:54;102330.81;;;16.54
78225;BMP280;67498;53.650;10.090;2023-09-07T05:13:20;102327.78;;;16.56
78225;BMP280;67498;53.650;10.090;2023-09-07T05:15:50;102332.97;;;16.63
78225;BMP280;67498;53.650;10.090;2023-09-07T05:18:16;102334.09;;;16.62
78225;BMP280;67498;53.650;10.090;2023-09-07T05:20:41;102340.03;;;16.70
78225;BMP280;67498;53.650;10.090;2023-09-07T05:23:06;102344.50;;;16.73
78225;BMP280;67498;53.650;10.090;2023-09-07T05:25:32;102340.75;;;16.70
78225;BMP280;67498;53.650;10.090;2023-09-07T05:27:57;102336.22;;;16.74
78225;BMP280;67498;53.650;10.090;2023-09-07T05:30:22;102343.66;;;16.79
78225;BMP280;67498;53.650;10.090;2023-09-07T05:32:48;102345.53;;;16.82
78225;BMP280;67498;53.650;10.090;2023-09-07T05:35:13;102351.91;;;16.85
78225;BMP280;67498;53.650;10.090;2023-09-07T05:37:40;102349.94;;;16.89
78225;BMP280;67498;53.650;10.090;2023-09-07T05:40:06;102339.09;;;16.83
78225;BMP280;67498;53.650;10.090;2023-09-07T05:42:32;102353.28;;;16.93
78225;BMP280;67498;53.650;10.090;2023-09-07T05:44:57;102355.47;;;16.98
78225;BMP280;67498;53.650;10.090;2023-09-07T05:47:22;102348.69;;;16.97
78225;BMP280;67498;53.650;10.090;2023-09-07T05:49:48;102358.41;;;17.04
78225;BMP280;67498;53.650;10.090;2023-09-07T05:52:13;102360.97;;;17.07
78225;BMP280;67498;53.650;10.090;2023-09-07T05:54:38;102347.44;;;17.05
78225;BMP280;67498;53.650;10.090;2023-09-07T05:57:03;102354.53;;;17.08
78225;BMP280;67498;53.650;10.090;2023-09-07T05:59:29;102360.88;;;17.14
78225;BMP280;67498;53.650;10.090;2023-09-07T06:01:54;102353.34;;;17.13
78225;BMP280;67498;53.650;10.090;2023-09-07T06:04:19;102361.56;;;17.19
78225;BMP280;67498;53.650;10.090;2023-09-07T06:06:45;102358.84;;;17.22
78225;BMP280;67498;53.650;10.090;2023-09-07T06:09:10;102357.25;;;17.28
78225;BMP280;67498;53.650;10.090;2023-09-07T06:11:35;102371.44;;;17.38
78225;BMP280;67498;53.650;10.090;2023-09-07T06:14:00;102371.06;;;17.39
78225;BMP280;67498;53.650;10.090;2023-09-07T06:16:26;102365.59;;;17.47
78225;BMP280;67498;53.650;10.090;2023-09-07T06:18:51;102368.09;;;17.57
78225;BMP280;67498;53.650;10.090;2023-09-07T06:21:16;102358.63;;;17.60
78225;BMP280;67498;53.650;10.090;2023-09-07T06:23:41;102375.03;;;17.71
78225;BMP280;67498;53.650;10.090;2023-09-07T06:26:07;102374.50;;;17.80
78225;BMP280;67498;53.650;10.090;2023-09-07T06:28:32;102377.50;;;18.02
78225;BMP280;67498;53.650;10.090;2023-09-07T06:30:58;102380.75;;;18.45
78225;BMP280;67498;53.650;10.090;2023-09-07T06:33:24;102379.97;;;19.14
78225;BMP280;67498;53.650;10.090;2023-09-07T06:35:49;102381.34;;;19.93
78225;BMP280;67498;53.650;10.090;2023-09-07T06:38:14;102377.94;;;20.56
78225;BMP280;67498;53.650;10.090;2023-09-07T06:40:39;102375.50;;;21.31
78225;BMP280;67498;53.650;10.090;2023-09-07T06:43:05;102376.78;;;22.01
78225;BMP280;67498;53.650;10.090;2023-09-07T06:45:36;102364.66;;;22.77
78225;BMP280;67498;53.650;10.090;2023-09-07T06:48:02;102371.56;;;23.30
78225;BMP280;67498;53.650;10.090;2023-09-07T06:50:28;102374.84;;;23.25
78225;BMP280;67498;53.650;10.090;2023-09-07T06:52:53;102373.56;;;22.92
78225;BMP280;67498;53.650;10.090;2023-09-07T06:55:18;102373.97;;;22.54
78225;BMP280;67498;53.650;10.090;2023-09-07T06:57:45;102370.50;;;22.26
78225;BMP280;67498;53.650;10.090;2023-09-07T07:00:10;102380.41;;;22.17
78225;BMP280;67498;53.650;10.090;2023-09-07T07:02:37;102379.19;;;22.08
78225;BMP280;67498;53.650;10.090;2023-09-07T07:05:02;102378.91;;;22.16
78225;BMP280;67498;53.650;10.090;2023-09-07T07:07:29;102382.59;;;22.18
78225;BMP280;67498;53.650;10.090;2023-09-07T07:09:54;102387.22;;;22.18
78225;BMP280;67498;53.650;10.090;2023-09-07T07:12:19;102391.34;;;22.19
78225;BMP280;67498;53.650;10.090;2023-09-07T07:14:46;102386.75;;;22.10
78225;BMP280;67498;53.650;10.090;2023-09-07T07:17:11;102385.53;;;22.11
78225;BMP280;67498;53.650;10.090;2023-09-07T07:19:36;102382.75;;;22.14
78225;BMP280;67498;53.650;10.090;2023-09-07T07:22:01;102395.31;;;22.23
78225;BMP280;67498;53.650;10.090;2023-09-07T07:24:28;102395.53;;;22.29
78225;BMP280;67498;53.650;10.090;2023-09-07T07:26:53;102386.34;;;22.30
78225;BMP280;67498;53.650;10.090;2023-09-07T07:29:18;102393.31;;;22.46
78225;BMP280;67498;53.650;10.090;2023-09-07T07:31:43;102387.31;;;22.63
78225;BMP280;67498;53.650;10.090;2023-09-07T07:34:09;102392.50;;;22.85
78225;BMP280;67498;53.650;10.090;2023-09-07T07:36:35;102393.09;;;22.99
78225;BMP280;67498;53.650;10.090;2023-09-07T07:39:00;102396.19;;;23.15
78225;BMP280;67498;53.650;10.090;2023-09-07T07:41:26;102392.03;;;23.24
78225;BMP280;67498;53.650;10.090;2023-09-07T07:43:51;102395.41;;;23.33
78225;BMP280;67498;53.650;10.090;2023-09-07T07:46:17;102394.81;;;23.38
78225;BMP280;67498;53.650;10.090;2023-09-07T07:48:43;102396.16;;;23.43
78225;BMP280;67498;53.650;10.090;2023-09-07T07:51:09;102397.78;;;23.49
78225;BMP280;67498;53.650;10.090;2023-09-07T07:53:34;102398.78;;;23.52
78225;BMP280;67498;53.650;10.090;2023-09-07T07:55:59;102401.00;;;23.63
78225;BMP280;67498;53.650;10.090;2023-09-07T07:58:25;102404.06;;;23.70
78225;BMP280;67498;53.650;10.090;2023-09-07T08:00:50;102404.78;;;23.80
78225;BMP280;67498;53.650;10.090;2023-09-07T08:03:15;102398.97;;;23.91
78225;BMP280;67498;53.650;10.090;2023-09-07T08:05:41;102395.09;;;23.92
78225;BMP280;67498;53.650;10.090;2023-09-07T08:08:06;102398.44;;;24.01
78225;BMP280;67498;53.650;10.090;2023-09-07T08:10:35;102395.28;;;24.12
78225;BMP280;67498;53.650;10.090;2023-09-07T08:13:05;102393.13;;;24.25
78225;BMP280;67498;53.650;10.090;2023-09-07T08:15:32;102379.91;;;24.31
78225;BMP280;67498;53.650;10.090;2023-09-07T08:17:57;102397.63;;;24.43
78225;BMP280;67498;53.650;10.090;2023-09-07T08:20:25;102389.63;;;24.58
78225;BMP280;67498;53.650;10.090;2023-09-07T08:22:50;102399.19;;;24.74
78225;BMP280;67498;53.650;10.090;2023-09-07T08:25:17;102391.09;;;24.83
78225;BMP280;67498;53.650;10.090;2023-09-07T08:27:43;102396.63;;;24.94
78225;BMP280;67498;53.650;10.090;2023-09-07T08:30:11;102388.06;;;25.05
78225;BMP280;67498;53.650;10.090;2023-09-07T08:32:36;102386.66;;;25.24
78225;BMP280;67498;53.650;10.090;2023-09-07T08:35:04;102375.00;;;25.57
78225;BMP280;67498;53.650;10.090;2023-09-07T08:37:31;102387.47;;;25.95
78225;BMP280;67498;53.650;10.090;2023-09-07T08:39:58;102379.13;;;26.34
78225;BMP280;67498;53.650;10.090;2023-09-07T08:42:24;102386.34;;;26.74
78225;BMP280;67498;53.650;10.090;2023-09-07T08:44:50;102378.22;;;27.26
78225;BMP280;67498;53.650;10.090;2023-09-07T08:47:17;102370.69;;;27.78
78225;BMP280;67498;53.650;10.090;2023-09-07T08:49:44;102387.84;;;27.97
78225;BMP280;67498;53.650;10.090;2023-09-07T08:52:11;102382.94;;;27.96
78225;BMP280;67498;53.650;10.090;2023-09-07T08:54:37;102388.31;;;27.90
78225;BMP280;67498;53.650;10.090;2023-09-07T08:57:02;102382.88;;;27.79
78225;BMP280;67498;53.650;10.090;2023-09-07T08:59:29;102383.88;;;27.82
78225;BMP280;67498;53.650;10.090;2023-09-07T09:01:58;102380.28;;;28.02
78225;BMP280;67498;53.650;10.090;2023-09-07T09:04:25;102371.25;;;28.16
78225;BMP280;67498;53.650;10.090;2023-09-07T09:06:50;102381.06;;;28.19
78225;BMP280;67498;53.650;10.090;2023-09-07T09:09:24;102382.31;;;28.40
78225;BMP280;67498;53.650;10.090;2023-09-07T09:11:50;102376.22;;;28.51
78225;BMP280;67498;53.650;10.090;2023-09-07T09:14:20;102373.00;;;28.30
78225;BMP280;67498;53.650;10.090;2023-09-07T09:16:51;102369.56;;;28.13
78225;BMP280;67498;53.650;10.090;2023-09-07T09:19:17;102381.94;;;27.93
78225;BMP280;67498;53.650;10.090;2023-09-07T09:21:44;102375.81;;;27.82
78225;BMP280;67498;53.650;10.090;2023-09-07T09:24:11;102381.16;;;27.76
78225;BMP280;67498;53.650;10.090;2023-09-07T09:26:37;102380.91;;;27.74
78225;BMP280;67498;53.650;10.090;2023-09-07T09:29:02;102378.69;;;27.73
78225;BMP280;67498;53.650;10.090;2023-09-07T09:31:29;102380.38;;;27.64
78225;BMP280;67498;53.650;10.090;2023-09-07T09:33:55;102372.06;;;27.57
78225;BMP280;67498;53.650;10.090;2023-09-07T09:36:20;102379.38;;;27.62
78225;BMP280;67498;53.650;10.090;2023-09-07T09:38:51;102388.69;;;27.66
78225;BMP280;67498;53.650;10.090;2023-09-07T09:41:19;102378.94;;;27.69
78225;BMP280;67498;53.650;10.090;2023-09-07T09:43:46;102381.63;;;27.69
78225;BMP280;67498;53.650;10.090;2023-09-07T09:46:14;102388.25;;;27.79
78225;BMP280;67498;53.650;10.090;2023-09-07T09:48:41;102391.19;;;27.81
78225;BMP280;67498;53.650;10.090;2023-09-07T09:51:07;102381.44;;;27.84
78225;BMP280;67498;53.650;10.090;2023-09-07T09:53:32;102377.31;;;27.83
78225;BMP280;67498;53.650;10.090;2023-09-07T09:55:58;102365.78;;;27.77
78225;BMP280;67498;53.650;10.090;2023-09-07T09:58:23;102374.56;;;27.77
78225;BMP280;67498;53.650;10.090;2023-09-07T10:00:51;102363.16;;;27.88
78225;BMP280;67498;53.650;10.090;2023-09-07T10:03:22;102366.09;;;28.01
78225;BMP280;67498;53.650;10.090;2023-09-07T10:05:49;102355.88;;;28.11
78225;BMP280;67498;53.650;10.090;2023-09-07T10:08:17;102360.53;;;28.33
78225;BMP280;67498;53.650;10.090;2023-09-07T10:10:45;102358.38;;;28.48
78225;BMP280;67498;53.650;10.090;2023-09-07T10:13:14;102365.94;;;28.55
78225;BMP280;67498;53.650;10.090;2023-09-07T10:15:39;102361.03;;;28.70
78225;BMP280;67498;53.650;10.090;2023-09-07T10:18:15;102355.91;;;28.89
78225;BMP280;67498;53.650;10.090;2023-09-07T10:20:56;102348.78;;;28.97
78225;BMP280;67498;53.650;10.090;2023-09-07T10:23:35;102358.56;;;29.11
78225;BMP280;67498;53.650;10.090;2023-09-07T10:26:02;102343.88;;;29.01
78225;BMP280;67498;53.650;10.090;2023-09-07T10:28:29;102348.09;;;28.85
78225;BMP280;67498;53.650;10.090;2023-09-07T10:31:06;102339.28;;;28.74
78225;BMP280;67498;53.650;10.090;2023-09-07T10:33:33;102351.28;;;28.84
78225;BMP280;67498;53.650;10.090;2023-09-07T10:35:59;102342.47;;;28.72
78225;BMP280;67498;53.650;10.090;2023-09-07T10:38:25;102338.31;;;28.66
78225;BMP280;67498;53.650;10.090;2023-09-07T10:40:58;102332.94;;;28.54
78225;BMP280;67498;53.650;10.090;2023-09-07T10:43:27;102339.28;;;28.51
78225;BMP280;67498;53.650;10.090;2023-09-07T10:45:54;102340.25;;;28.48
78225;BMP280;67498;53.650;10.090;2023-09-07T10:48:20;102334.66;;;28.41
78225;BMP280;67498;53.650;10.090;2023-09-07T10:50:46;102339.06;;;28.38
78225;BMP280;67498;53.650;10.090;2023-09-07T10:53:24;102335.66;;;28.38
78225;BMP280;67498;53.650;10.090;2023-09-07T10:55:50;102333.41;;;28.36
78225;BMP280;67498;53.650;10.090;2023-09-07T10:58:26;102322.19;;;28.32
78225;BMP280;67498;53.650;10.090;2023-09-07T11:00:53;102316.81;;;28.32
78225;BMP280;67498;53.650;10.090;2023-09-07T11:03:18;102317.31;;;28.31
78225;BMP280;67498;53.650;10.090;2023-09-07T11:05:44;102314.84;;;28.33
78225;BMP280;67498;53.650;10.090;2023-09-07T11:08:09;102306.78;;;28.33
78225;BMP280;67498;53.650;10.090;2023-09-07T11:10:36;102310.22;;;28.39
78225;BMP280;67498;53.650;10.090;2023-09-07T11:13:05;102310.44;;;28.46
78225;BMP280;67498;53.650;10.090;2023-09-07T11:15:31;102313.16;;;28.41
78225;BMP280;67498;53.650;10.090;2023-09-07T11:17:58;102316.59;;;28.36
78225;BMP280;67498;53.650;10.090;2023-09-07T11:20:23;102310.69;;;28.37
78225;BMP280;67498;53.650;10.090;2023-09-07T11:22:50;102307.78;;;28.41
78225;BMP280;67498;53.650;10.090;2023-09-07T11:25:15;102301.91;;;28.42
78225;BMP280;67498;53.650;10.090;2023-09-07T11:27:41;102299.69;;;28.52
78225;BMP280;67498;53.650;10.090;2023-09-07T11:30:06;102305.78;;;28.58
78225;BMP280;67498;53.650;10.090;2023-09-07T11:32:34;102303.38;;;28.60
78225;BMP280;67498;53.650;10.090;2023-09-07T11:34:59;102303.59;;;28.62
78225;BMP280;67498;53.650;10.090;2023-09-07T11:37:26;102287.97;;;28.55
78225;BMP280;67498;53.650;10.090;2023-09-07T11:39:51;102298.72;;;28.66
78225;BMP280;67498;53.650;10.090;2023-09-07T11:42:17;102310.44;;;28.74
78225;BMP280;67498;53.650;10.090;2023-09-07T11:44:42;102304.78;;;28.78
78225;BMP280;67498;53.650;10.090;2023-09-07T11:47:07;102293.53;;;28.79
78225;BMP280;67498;53.650;10.090;2023-09-07T11:49:33;102286.97;;;28.80
78225;BMP280;67498;53.650;10.090;2023-09-07T11:51:59;102284.25;;;28.86
78225;BMP280;67498;53.650;10.090;2023-09-07T11:54:24;102290.56;;;28.94
78225;BMP280;67498;53.650;10.090;2023-09-07T11:56:49;102276.66;;;28.90
78225;BMP280;67498;53.650;10.090;2023-09-07T11:59:15;102287.16;;;28.94
78225;BMP280;67498;53.650;10.090;2023-09-07T12:01:42;102273.69;;;28.94
78225;BMP280;67498;53.650;10.090;2023-09-07T12:04:07;102274.19;;;28.98
78225;BMP280;67498;53.650;10.090;2023-09-07T12:06:33;102280.25;;;29.04
78225;BMP280;67498;53.650;10.090;2023-09-07T12:09:00;102284.69;;;29.07
78225;BMP280;67498;53.650;10.090;2023-09-07T12:11:26;102288.34;;;29.09
78225;BMP280;67498;53.650;10.090;2023-09-07T12:13:51;102280.53;;;29.11
78225;BMP280;67498;53.650;10.090;2023-09-07T12:16:16;102280.03;;;29.07
78225;BMP280;67498;53.650;10.090;2023-09-07T12:18:41;102277.56;;;29.09
78225;BMP280;67498;53.650;10.090;2023-09-07T12:21:07;102271.94;;;29.07
78225;BMP280;67498;53.650;10.090;2023-09-07T12:23:33;102266.78;;;29.15
78225;BMP280;67498;53.650;10.090;2023-09-07T12:25:58;102260.38;;;29.18
78225;BMP280;67498;53.650;10.090;2023-09-07T12:28:25;102259.13;;;29.30
78225;BMP280;67498;53.650;10.090;2023-09-07T12:30:51;102255.44;;;29.33
78225;BMP280;67498;53.650;10.090;2023-09-07T12:33:16;102263.22;;;29.42
78225;BMP280;67498;53.650;10.090;2023-09-07T12:35:41;102252.19;;;29.46
78225;BMP280;67498;53.650;10.090;2023-09-07T12:38:06;102246.97;;;29.54
78225;BMP280;67498;53.650;10.090;2023-09-07T12:40:34;102256.81;;;29.51
78225;BMP280;67498;53.650;10.090;2023-09-07T12:42:59;102255.59;;;29.47
78225;BMP280;67498;53.650;10.090;2023-09-07T12:45:24;102251.00;;;29.47
78225;BMP280;67498;53.650;10.090;2023-09-07T12:47:50;102244.09;;;29.52
78225;BMP280;67498;53.650;10.090;2023-09-07T12:50:15;102245.06;;;29.54
78225;BMP280;67498;53.650;10.090;2023-09-07T12:52:40;102239.63;;;29.60
78225;BMP280;67498;53.650;10.090;2023-09-07T12:55:06;102223.22;;;29.58
78225;BMP280;67498;53.650;10.090;2023-09-07T12:57:32;102236.44;;;29.61
78225;BMP280;67498;53.650;10.090;2023-09-07T12:59:58;102222.50;;;29.57
78225;BMP280;67498;53.650;10.090;2023-09-07T13:02:23;102234.19;;;29.65
78225;BMP280;67498;53.650;10.090;2023-09-07T13:04:48;102228.78;;;29.65
78225;BMP280;67498;53.650;10.090;2023-09-07T13:07:14;102217.78;;;29.63
78225;BMP280;67498;53.650;10.090;2023-09-07T13:09:39;102228.53;;;29.69
78225;BMP280;67498;53.650;10.090;2023-09-07T13:12:05;102209.19;;;29.70
78225;BMP280;67498;53.650;10.090;2023-09-07T13:14:30;102216.44;;;29.81
78225;BMP280;67498;53.650;10.090;2023-09-07T13:16:56;102221.06;;;29.86
78225;BMP280;67498;53.650;10.090;2023-09-07T13:19:21;102221.06;;;29.86
78225;BMP280;67498;53.650;10.090;2023-09-07T13:21:46;102219.56;;;29.91
78225;BMP280;67498;53.650;10.090;2023-09-07T13:24:12;102217.63;;;29.86
78225;BMP280;67498;53.650;10.090;2023-09-07T13:26:37;102213.91;;;29.89
78225;BMP280;67498;53.650;10.090;2023-09-07T13:29:02;102196.84;;;29.81
78225;BMP280;67498;53.650;10.090;2023-09-07T13:31:27;102198.59;;;29.78
78225;BMP280;67498;53.650;10.090;2023-09-07T13:33:53;102199.28;;;29.84
78225;BMP280;67498;53.650;10.090;2023-09-07T13:36:18;102210.97;;;29.92
78225;BMP280;67498;53.650;10.090;2023-09-07T13:38:43;102211.41;;;29.96